Time;durP1;ratioP1;P1;durP2;ratioP2;P2;SDS_P1;SDS_P2;PMS_P1;PMS_P2;Temp;Humidity;BMP_temperature;BMP_pressure;BME280_temperature;BME280_humidity;BME280_pressure;Samples;Min_cycle;Max_cycle;Signal;HPM_P1;HPM_P2
2023/11/01 00:00:06;;;;;;;5.43;4.93;;;;;;;15.39;100.00;99908.28;5043101;28;20056;-77
2023/11/01 00:02:33;;;;;;;4.75;4.13;;;;;;;15.18;100.00;99864.81;5055012;28;20025;-76
2023/11/01 00:05:00;;;;;;;2.95;2.65;;;;;;;14.37;100.00;99770.09;5054571;28;20045;-79
2023/11/01 00:11:33;;;;;;;7.25;3.92;;;;;;;15.30;100.00;99880.31;5034598;28;20064;-79
2023/11/01 00:13:58;;;;;;;5.20;4.13;;;;;;;14.76;100.00;99783.19;5033623;28;20369;-80
2023/11/01 00:16:24;;;;;;;4.35;4.00;;;;;;;15.41;100.00;99880.03;5034321;28;20049;-78
2023/11/01 00:18:50;;;;;;;4.93;4.53;;;;;;;14.98;100.00;99794.00;5033134;28;20056;-78
2023/11/01 00:24:37;;;;;;;3.25;2.95;;;;;;;15.36;100.00;99869.59;5034840;28;20040;-79
2023/11/01 00:27:04;;;;;;;4.03;2.38;;;;;;;15.08;100.00;99805.22;5033540;28;20046;-78
2023/11/01 00:32:51;;;;;;;5.45;4.93;;;;;;;15.53;100.00;99855.00;5034752;28;20099;-79
2023/11/01 00:35:17;;;;;;;3.38;3.08;;;;;;;15.40;100.00;99841.25;5034473;28;20025;-78
2023/11/01 00:37:44;;;;;;;5.00;4.57;;;;;;;15.29;100.00;99835.41;5033918;28;20045;-78
2023/11/01 00:40:11;;;;;;;3.92;3.60;;;;;;;15.21;100.00;99817.13;5033868;28;20535;-77
2023/11/01 00:49:53;;;;;;;3.95;3.60;;;;;;;15.40;100.00;99847.44;5053237;28;20091;-77
2023/11/01 00:52:18;;;;;;;9.43;6.13;;;;;;;14.69;100.00;99760.47;5035425;28;20098;-79
2023/11/01 00:54:44;;;;;;;5.13;3.83;;;;;;;14.50;100.00;99691.44;5040663;28;20046;-76
2023/11/01 00:57:09;;;;;;;2.45;1.80;;;;;;;14.93;100.00;99756.28;5048570;28;20021;-77
2023/11/01 00:59:40;;;;;;;3.13;2.78;;;;;;;14.80;100.00;99725.84;5060416;28;20024;-78
2023/11/01 01:02:05;;;;;;;2.63;2.42;;;;;;;15.15;100.00;99764.47;5031526;28;20045;-78
2023/11/01 01:04:31;;;;;;;4.40;3.58;;;;;;;15.30;100.00;99798.38;5032134;28;20056;-77
2023/11/01 01:10:18;;;;;;;15.25;4.25;;;;;;;15.66;100.00;99845.78;5028612;28;20065;-76
2023/11/01 01:16:06;;;;;;;4.20;3.83;;;;;;;14.97;100.00;99713.03;5053703;28;20120;-77
2023/11/01 01:18:31;;;;;;;12.88;3.60;;;;;;;15.11;100.00;99745.19;5035131;28;20045;-78
2023/11/01 01:20:58;;;;;;;5.88;4.50;;;;;;;15.11;100.00;99742.53;5034383;28;20032;-80
2023/11/01 01:23:24;;;;;;;4.20;3.60;;;;;;;15.36;100.00;99774.41;5033868;28;20060;-78
2023/11/01 01:29:38;;;;;;;4.07;3.50;;;;;;;14.86;100.00;99707.19;5049614;28;20119;-79
2023/11/01 01:32:05;;;;;;;3.70;3.20;;;;;;;15.13;100.00;99756.59;5053302;28;20045;-78
2023/11/01 01:37:51;;;;;;;4.13;3.35;;;;;;;15.57;100.00;99817.00;5053556;28;20043;-78
2023/11/01 01:43:39;;;;;;;3.78;3.03;;;;;;;15.53;100.00;99795.03;5052776;28;20048;-79
2023/11/01 01:49:26;;;;;;;4.88;3.33;;;;;;;15.15;100.00;99723.06;5053285;28;20044;-77
2023/11/01 01:51:52;;;;;;;2.47;2.28;;;;;;;15.10;100.00;99711.75;5034929;28;20045;-78
2023/11/01 01:54:17;;;;;;;7.93;6.90;;;;;;;15.61;100.00;99808.03;5052533;28;20033;-78
2023/11/01 01:56:43;;;;;;;3.60;3.30;;;;;;;15.73;100.00;99834.16;5052946;28;20115;-78
2023/11/01 01:59:09;;;;;;;4.38;3.97;;;;;;;15.47;100.00;99797.88;5040226;28;20449;-78
2023/11/01 02:01:36;;;;;;;1.63;1.45;;;;;;;15.60;100.00;99849.47;5052804;28;20045;-78
2023/11/01 02:04:01;;;;;;;10.88;4.65;;;;;;;15.06;100.00;99770.88;5052340;28;20047;-78
2023/11/01 02:09:49;;;;;;;2.60;1.95;;;;;;;15.22;100.00;99841.78;5052638;28;20086;-79
2023/11/01 02:12:17;;;;;;;2.38;1.98;;;;;;;15.06;100.00;99784.09;5051429;28;20116;-78
2023/11/01 02:14:42;;;;;;;3.75;3.42;;;;;;;15.44;100.00;99879.94;5034359;28;20021;-78
2023/11/01 02:23:51;;;;;;;9.13;4.68;;;;;;;15.25;100.00;99824.06;5033290;28;20132;-81
2023/11/01 02:26:17;;;;;;;6.30;5.65;;;;;;;14.95;100.00;99787.03;5013012;28;20354;-80
2023/11/01 02:28:43;;;;;;;18.20;3.20;;;;;;;15.16;100.00;99833.13;5032916;28;20194;-80
2023/11/01 02:31:08;;;;;;;3.88;2.42;;;;;;;14.90;100.00;99780.16;5032301;28;20041;-78
2023/11/01 02:36:57;;;;;;;2.63;2.40;;;;;;;15.61;100.00;99871.50;5032623;28;20053;-78
2023/11/01 02:42:47;;;;;;;1.33;1.23;;;;;;;15.27;100.00;99822.25;5022562;28;20536;-77
2023/11/01 02:45:14;;;;;;;2.92;2.67;;;;;;;15.85;100.00;99909.66;5031340;28;21638;-77
2023/11/01 02:47:42;;;;;;;2.72;2.33;;;;;;;15.19;100.00;99829.53;5014761;28;20496;-77
2023/11/01 02:50:45;;;;;;;2.75;2.25;;;;;;;15.92;100.00;99931.47;5030641;28;20072;-76
2023/11/01 02:53:11;;;;;;;3.55;2.80;;;;;;;15.87;100.00;99930.75;5031929;28;20046;-76
2023/11/01 02:55:36;;;;;;;3.35;1.80;;;;;;;15.35;100.00;99851.09;5032111;28;20049;-77
2023/11/01 02:58:03;;;;;;;4.68;2.67;;;;;;;15.16;100.00;99817.28;5030316;28;20037;-77
2023/11/01 03:01:21;;;;;;;4.82;3.42;;;;;;;15.82;100.00;99958.19;5030079;28;20517;-77
2023/11/01 03:07:48;;;;;;;3.95;2.25;;;;;;;15.78;100.00;99971.56;5052096;28;20044;-77
2023/11/01 03:10:13;;;;;;;1.27;1.17;;;;;;;15.10;100.00;99896.75;5031928;28;20554;-78
2023/11/01 03:12:40;;;;;;;4.93;4.30;;;;;;;15.13;100.00;99901.94;5031602;28;20117;-77
2023/11/01 03:15:07;;;;;;;8.27;3.22;;;;;;;15.22;100.00;99937.81;5032100;28;20029;-79
2023/11/01 03:17:34;;;;;;;3.75;3.08;;;;;;;15.08;100.00;99895.91;5038012;28;20159;-80
2023/11/01 03:20:00;;;;;;;3.60;3.08;;;;;;;15.44;100.00;99951.31;5033909;28;20049;-77
2023/11/01 03:22:26;;;;;;;9.50;4.53;;;;;;;15.45;100.00;99968.03;5053390;28;20480;-78
2023/11/01 03:28:13;;;;;;;8.32;3.17;;;;;;;14.97;100.00;99898.81;5054787;28;20113;-78
2023/11/01 03:30:39;;;;;;;3.38;2.88;;;;;;;14.90;100.00;99867.34;5037424;28;20116;-77
2023/11/01 03:33:04;;;;;;;3.30;2.60;;;;;;;15.35;100.00;99941.84;5054924;28;20334;-77
2023/11/01 03:35:30;;;;;;;4.75;4.25;;;;;;;15.35;100.00;99952.44;5055537;28;20079;-79
2023/11/01 03:41:17;;;;;;;2.08;1.90;;;;;;;14.78;100.00;99858.81;5055945;28;20039;-78
2023/11/01 03:43:43;;;;;;;2.85;2.58;;;;;;;15.31;100.00;99948.16;5054952;28;20389;-79
2023/11/01 03:46:08;;;;;;;1.38;0.95;;;;;;;15.42;100.00;99958.41;5055193;28;20049;-79
2023/11/01 03:48:34;;;;;;;4.13;2.80;;;;;;;14.97;100.00;99874.19;5054758;28;20037;-79
2023/11/01 03:54:21;;;;;;;2.63;2.38;;;;;;;14.39;100.00;99796.44;5055187;28;20056;-79
2023/11/01 04:00:09;;;;;;;4.53;4.13;;;;;;;15.45;100.00;99960.97;5055259;28;20076;-79
2023/11/01 04:02:35;;;;;;;3.53;2.55;;;;;;;14.96;100.00;99852.19;5053394;28;20017;-79
2023/11/01 04:05:01;;;;;;;2.47;1.60;;;;;;;15.60;100.00;99952.63;5036849;28;20037;-78
2023/11/01 04:07:26;;;;;;;2.58;2.22;;;;;;;15.40;100.00;99926.75;5026602;28;20368;-79
2023/11/01 04:13:13;;;;;;;3.25;2.72;;;;;;;14.67;100.00;99818.63;5034747;28;20052;-78
2023/11/01 04:15:39;;;;;;;2.90;2.63;;;;;;;14.88;100.00;99859.44;5034784;28;20041;-78
2023/11/01 04:18:04;;;;;;;4.85;3.72;;;;;;;14.93;100.00;99883.09;5034279;28;20053;-77
2023/11/01 04:20:30;;;;;;;2.95;2.22;;;;;;;15.43;100.00;99964.56;5017059;28;20112;-79
2023/11/01 04:26:18;;;;;;;2.60;2.17;;;;;;;15.57;100.00;99965.09;5034897;28;20068;-79
2023/11/01 04:32:59;;;;;;;2.78;2.05;;;;;;;15.35;100.00;99973.56;5053348;28;20056;-77
2023/11/01 04:35:25;;;;;;;6.20;2.92;;;;;;;15.28;100.00;99979.06;5053648;28;20218;-79
2023/11/01 04:37:50;;;;;;;4.25;3.50;;;;;;;15.32;100.00;99992.19;5052947;28;20048;-78
2023/11/01 04:40:16;;;;;;;2.00;1.85;;;;;;;15.32;100.00;100015.97;5054133;28;20116;-78
2023/11/01 04:46:04;;;;;;;3.33;1.95;;;;;;;14.53;100.00;99907.84;5053865;28;20136;-77
2023/11/01 04:48:36;;;;;;;6.15;2.70;;;;;;;15.11;100.00;100020.03;5053608;28;20045;-77
2023/11/01 04:51:02;;;;;;;1.45;1.30;;;;;;;14.65;100.00;99933.97;5067357;28;20025;-78
2023/11/01 04:53:38;;;;;;;1.13;1.05;;;;;;;14.87;100.00;99958.09;5060828;28;20512;-80
2023/11/01 04:59:29;;;;;;;2.33;1.40;;;;;;;14.96;100.00;100054.72;5074631;28;20542;-80
2023/11/01 05:05:17;;;;;;;8.43;2.10;;;;;;;14.34;100.00;99932.03;5072180;28;20044;-79
2023/11/01 05:07:42;;;;;;;2.13;1.17;;;;;;;14.97;100.00;100059.13;5072249;28;20119;-79
2023/11/01 05:10:08;;;;;;;3.65;1.55;;;;;;;14.83;100.00;100011.91;5062521;28;20047;-80
2023/11/01 05:12:34;;;;;;;1.80;1.70;;;;;;;15.10;100.00;100064.97;5072847;28;20465;-81
2023/11/01 05:18:22;;;;;;;3.30;1.80;;;;;;;14.85;100.00;100047.06;5073198;28;20353;-80
2023/11/01 05:24:10;;;;;;;3.92;1.15;;;;;;;13.16;100.00;99783.41;5073302;28;20422;-79
2023/11/01 05:26:35;;;;;;;1.98;1.80;;;;;;;14.08;100.00;99931.75;5071275;28;20024;-79
2023/11/01 05:29:02;;;;;;;1.85;1.38;;;;;;;14.25;100.00;99976.25;5047607;28;20426;-80
2023/11/01 05:31:28;;;;;;;1.40;1.15;;;;;;;14.84;100.00;100079.66;5064665;28;20109;-80
2023/11/01 05:37:18;;;;;;;2.40;2.22;;;;;;;14.57;100.00;100029.22;5053238;28;20043;-80
2023/11/01 05:50:18;;;;;;;2.00;1.88;;;;;;;15.11;100.00;100131.00;5019268;28;20048;-78
2023/11/01 05:52:48;;;;;;;2.63;2.38;;;;;;;15.09;100.00;100124.03;5015766;28;20034;-76
2023/11/01 05:55:15;;;;;;;2.47;1.70;;;;;;;14.09;100.00;99938.75;5012127;28;20034;-78
2023/11/01 05:57:41;;;;;;;1.38;1.23;;;;;;;15.20;100.00;100130.81;5005969;28;20040;-79
2023/11/01 06:03:28;;;;;;;0.70;0.70;;;;;;;14.95;100.00;100101.44;5032479;28;20084;-78
2023/11/01 06:05:57;;;;;;;0.85;0.77;;;;;;;14.59;100.00;100028.34;5032047;28;20053;-80
2023/11/01 06:08:23;;;;;;;1.35;1.00;;;;;;;15.13;100.00;100152.13;5032387;28;20071;-78
2023/11/01 06:10:49;;;;;;;2.15;1.73;;;;;;;15.04;100.00;100136.50;5031079;28;20116;-78
2023/11/01 06:16:36;;;;;;;1.92;1.77;;;;;;;15.33;100.00;100149.00;5032606;28;20048;-80
2023/11/01 06:22:24;;;;;;;2.60;2.25;;;;;;;14.75;100.00;100040.28;5032734;28;20044;-79
2023/11/01 06:28:12;;;;;;;2.25;1.58;;;;;;;15.28;100.00;100150.91;5032716;28;20040;-77
2023/11/01 06:30:38;;;;;;;5.13;1.35;;;;;;;15.27;100.00;100128.03;5032125;28;20037;-77
2023/11/01 06:36:25;;;;;;;0.73;0.73;;;;;;;15.02;100.00;100094.22;5031936;28;20056;-77
2023/11/01 06:42:37;;;;;;;2.75;2.38;;;;;;;15.51;100.00;100179.44;5031084;28;20049;-79
2023/11/01 06:48:24;;;;;;;1.92;1.48;;;;;;;15.63;100.00;100179.13;5030737;28;20052;-80
2023/11/01 06:54:11;;;;;;;0.80;0.70;;;;;;;15.44;100.00;100178.72;5032362;28;20103;-80
2023/11/01 06:57:05;;;;;;;2.15;1.98;;;;;;;15.68;100.00;100179.88;5028410;28;20025;-81
2023/11/01 06:59:41;;;;;;;2.22;1.42;;;;;;;14.95;100.00;100088.22;5027672;28;20152;-79
2023/11/01 07:02:08;;;;;;;0.43;0.43;;;;;;;15.30;100.00;100120.00;5020601;28;20029;-80
2023/11/01 07:04:33;;;;;;;1.52;1.35;;;;;;;15.03;100.00;100072.22;5016092;28;20041;-81
2023/11/01 07:07:03;;;;;;;1.25;1.15;;;;;;;15.69;100.00;100186.94;5028828;28;20429;-82
2023/11/01 07:09:28;;;;;;;0.70;0.63;;;;;;;15.61;100.00;100173.88;5027778;28;20045;-81
2023/11/01 07:11:54;;;;;;;3.42;3.17;;;;;;;15.77;100.00;100179.69;5029745;28;20052;-79
2023/11/01 07:14:20;;;;;;;0.75;0.75;;;;;;;15.56;100.00;100157.25;5017921;28;20386;-80
2023/11/01 07:16:45;;;;;;;0.90;0.85;;;;;;;15.39;100.00;100135.66;5035468;28;20088;-80
2023/11/01 07:19:14;;;;;;;0.88;0.82;;;;;;;15.17;100.00;100062.16;5035239;28;20045;-80
2023/11/01 07:21:41;;;;;;;1.13;1.02;;;;;;;15.25;100.00;100093.69;5033551;28;20038;-79
2023/11/01 07:24:13;;;;;;;0.43;0.40;;;;;;;15.78;100.00;100156.75;5033767;28;20033;-80
2023/11/01 07:26:39;;;;;;;1.15;0.90;;;;;;;15.92;100.00;100169.63;5031950;28;20025;-80
2023/11/01 07:29:04;;;;;;;1.15;1.05;;;;;;;15.82;100.00;100137.25;5034335;28;20046;-80
2023/11/01 07:31:49;;;;;;;4.75;1.80;;;;;;;15.39;100.00;100053.69;5011720;28;20539;-79
2023/11/01 07:34:15;;;;;;;0.55;0.28;;;;;;;15.66;100.00;100088.25;5000868;28;20120;-80
2023/11/01 07:36:40;;;;;;;1.05;0.95;;;;;;;15.79;100.00;100106.44;5034326;28;20117;-80
2023/11/01 07:39:06;;;;;;;1.85;1.75;;;;;;;15.69;100.00;100067.03;5034533;28;20068;-80
2023/11/01 07:44:53;;;;;;;2.15;1.67;;;;;;;16.23;100.00;100180.28;5013285;28;20137;-83
2023/11/01 07:50:42;;;;;;;0.73;0.68;;;;;;;16.32;100.00;100169.44;5030318;28;20052;-80
2023/11/01 07:53:09;;;;;;;1.08;1.08;;;;;;;15.68;100.00;100076.72;5030817;28;20056;-80
2023/11/01 07:55:34;;;;;;;0.30;0.30;;;;;;;16.17;100.00;100151.31;5030977;28;20033;-80
2023/11/01 07:58:00;;;;;;;1.75;0.95;;;;;;;16.43;100.00;100200.91;5016376;28;20069;-80
2023/11/01 08:00:26;;;;;;;0.75;0.57;;;;;;;16.27;100.00;100176.63;5013530;28;20060;-82
2023/11/01 08:02:53;;;;;;;1.92;1.10;;;;;;;16.18;100.00;100167.16;5016580;28;20025;-81
2023/11/01 08:05:20;;;;;;;0.28;0.28;;;;;;;16.46;100.00;100188.47;5031300;28;20137;-80
2023/11/01 08:07:45;;;;;;;0.70;0.40;;;;;;;16.44;100.00;100177.03;5030261;28;20034;-80
2023/11/01 08:10:11;;;;;;;1.70;0.93;;;;;;;16.50;100.00;100181.28;5032498;28;20104;-81
2023/11/01 08:12:37;;;;;;;0.32;0.30;;;;;;;16.15;100.00;100105.47;5014798;28;20519;-81
2023/11/01 08:15:05;;;;;;;0.90;0.65;;;;;;;16.82;100.00;100211.34;5028182;28;20028;-82
2023/11/01 08:17:31;;;;;;;0.85;0.47;;;;;;;16.76;100.00;100193.78;5017170;28;20116;-79
2023/11/01 08:19:57;;;;;;;0.82;0.82;;;;;;;16.83;100.00;100189.22;5026077;28;20133;-81
2023/11/01 08:22:22;;;;;;;3.00;2.15;;;;;;;16.60;100.00;100152.75;5026551;28;20553;-80
2023/11/01 08:24:48;;;;;;;1.45;0.55;;;;;;;16.29;100.00;100115.69;5022186;28;20069;-80
2023/11/01 08:27:14;;;;;;;0.38;0.38;;;;;;;16.45;100.00;100115.19;5024456;28;20355;-80
2023/11/01 08:29:50;;;;;;;1.98;0.77;;;;;;;16.75;100.00;100152.31;5028095;28;20028;-80
2023/11/01 08:32:16;;;;;;;0.95;0.70;;;;;;;16.75;100.00;100139.06;5031498;28;20049;-77
2023/11/01 08:34:41;;;;;;;1.33;0.93;;;;;;;17.11;100.00;100199.84;5049953;28;20135;-77
2023/11/01 08:37:07;;;;;;;1.35;1.25;;;;;;;16.54;100.00;100103.47;5052831;28;20397;-78
2023/11/01 08:39:33;;;;;;;1.80;1.05;;;;;;;17.11;100.00;100204.28;5042464;28;20040;-80
2023/11/01 08:41:59;;;;;;;0.45;0.40;;;;;;;16.87;100.00;100125.47;5030034;28;20124;-79
2023/11/01 08:44:25;;;;;;;1.15;1.05;;;;;;;17.12;100.00;100188.34;5043623;28;20381;-79
2023/11/01 08:47:02;;;;;;;0.73;0.57;;;;;;;17.32;100.00;100224.84;5043443;28;20029;-79
2023/11/01 08:50:05;;;;;;;2.28;2.08;;;;;;;17.39;100.00;100212.28;5030445;28;20047;-78
2023/11/01 08:52:34;;;;;;;1.48;1.25;;;;;;;16.70;100.00;100118.94;5037882;28;20072;-78
2023/11/01 08:55:02;;;;;;;0.20;0.20;;;;;;;17.07;100.00;100166.44;5051944;28;20129;-80
2023/11/01 08:57:28;;;;;;;0.65;0.65;;;;;;;17.55;100.00;100224.13;5045779;28;20045;-78
2023/11/01 09:07:13;;;;;;;0.88;0.52;;;;;;;17.77;100.00;100213.72;5040685;28;20041;-80
2023/11/01 09:09:39;;;;;;;0.50;0.50;;;;;;;17.83;100.00;100200.25;5039570;28;20045;-81
2023/11/01 09:12:06;;;;;;;0.57;0.50;;;;;;;17.60;100.00;100153.22;5049870;28;20175;-80
2023/11/01 09:14:31;;;;;;;2.08;1.05;;;;;;;17.67;100.00;100148.56;5030482;28;20037;-77
2023/11/01 09:16:59;;;;;;;1.52;1.30;;;;;;;18.09;100.00;100198.50;5047662;28;20044;-79
2023/11/01 09:19:25;;;;;;;0.30;0.30;;;;;;;18.05;100.00;100202.19;5016811;28;20481;-79
2023/11/01 09:21:50;;;;;;;0.20;0.20;;;;;;;18.07;100.00;100168.47;5051423;28;20090;-79
2023/11/01 09:24:34;;;;;;;2.35;1.95;;;;;;;18.10;100.00;100173.69;5051615;28;20068;-77
2023/11/01 09:27:00;;;;;;;0.30;0.30;;;;;;;17.79;100.00;100105.69;5042787;28;20469;-80
2023/11/01 09:29:26;;;;;;;0.30;0.30;;;;;;;18.42;100.00;100195.59;5049959;28;20048;-79
2023/11/01 09:32:26;;;;;;;0.88;0.88;;;;;;;18.51;100.00;100192.59;5049167;28;20048;-78
2023/11/01 09:35:04;;;;;;;1.70;0.60;;;;;;;18.52;100.00;100184.56;5017431;28;20053;-79
2023/11/01 09:37:30;;;;;;;0.70;0.70;;;;;;;18.61;100.00;100174.53;5032912;28;20060;-77
2023/11/01 09:39:55;;;;;;;1.15;1.05;;;;;;;18.70;100.00;100163.53;5029222;28;20493;-77
2023/11/01 09:42:21;;;;;;;1.95;1.52;;;;;;;18.11;100.00;100070.06;5015660;28;20038;-78
2023/11/01 09:44:57;;;;;;;1.38;1.25;;;;;;;18.74;100.00;100171.34;5036718;28;20025;-78
2023/11/01 09:47:27;;;;;;;1.52;1.27;;;;;;;18.74;100.00;100154.53;5033969;28;20044;-78
2023/11/01 09:49:54;;;;;;;0.52;0.52;;;;;;;18.89;100.00;100171.72;5032077;28;20040;-78
2023/11/01 09:52:24;;;;;;;2.28;0.63;;;;;;;18.21;100.00;100036.06;5030710;28;20057;-81
2023/11/01 09:54:50;;;;;;;0.52;0.50;;;;;;;18.68;100.00;100086.56;5009705;28;20460;-81
2023/11/01 09:57:52;;;;;;;0.30;0.28;;;;;;;19.25;100.00;100172.09;5028718;28;20033;-79
2023/11/01 10:00:25;;;;;;;0.73;0.73;;;;;;;19.20;100.00;100158.13;5022214;28;20048;-77
2023/11/01 10:03:22;;;;;;;0.37;0.30;;;;;;;19.34;100.00;100170.88;5025503;28;20044;-80
2023/11/01 10:05:47;;;;;;;0.95;0.95;;;;;;;18.98;99.22;100079.16;5002883;28;20374;-79
2023/11/01 10:08:13;;;;;;;0.80;0.77;;;;;;;19.28;94.78;100110.78;5033754;28;20048;-80
2023/11/01 10:10:41;;;;;;;1.00;0.65;;;;;;;19.43;92.77;100143.88;5024566;28;20041;-80
2023/11/01 10:16:30;;;;;;;0.10;0.10;;;;;;;19.27;86.38;100110.81;5029253;28;20095;-83
2023/11/01 10:18:56;;;;;;;0.20;0.20;;;;;;;18.14;86.12;99938.97;5028076;28;20120;-82
2023/11/01 10:21:29;;;;;;;0.28;0.28;;;;;;;19.63;86.12;100148.38;5030166;28;20046;-82
2023/11/01 10:23:57;;;;;;;0.20;0.20;;;;;;;18.98;85.09;100011.81;5008710;28;20036;-82
2023/11/01 10:29:47;;;;;;;0.20;0.20;;;;;;;19.81;82.76;100147.63;5028078;28;20508;-83
2023/11/01 10:32:13;;;;;;;0.60;0.57;;;;;;;20.09;81.78;100157.13;5002197;28;20045;-82
2023/11/01 10:35:10;;;;;;;0.28;0.28;;;;;;;20.19;80.46;100144.25;5041146;28;20107;-82
2023/11/01 10:41:29;;;;;;;0.20;0.20;;;;;;;20.48;74.50;100153.59;5049208;28;20088;-83
2023/11/01 10:43:55;;;;;;;14.25;1.25;;;;;;;19.95;66.77;100045.00;5026789;28;20046;-82
2023/11/01 10:46:21;;;;;;;0.68;0.68;;;;;;;20.30;64.69;100101.13;5033937;28;20492;-82
2023/11/01 10:48:48;;;;;;;0.30;0.28;;;;;;;19.64;61.88;100038.28;5067780;28;20032;-82
2023/11/01 10:51:13;;;;;;;1.70;0.65;;;;;;;20.35;60.18;100118.66;5041997;28;20046;-83
2023/11/01 10:53:40;;;;;;;0.38;0.38;;;;;;;20.14;59.68;100058.34;5049243;28;20123;-83
2023/11/01 10:56:07;;;;;;;1.10;0.80;;;;;;;19.74;59.81;100001.53;5047975;28;20115;-82
2023/11/01 10:58:37;;;;;;;0.68;0.68;;;;;;;19.98;61.13;100036.84;5029448;28;20389;-82
2023/11/01 11:01:29;;;;;;;0.32;0.32;;;;;;;20.51;59.61;100101.94;5047550;28;20045;-84
2023/11/01 11:04:20;;;;;;;0.73;0.73;;;;;;;20.55;60.84;100125.72;5025919;28;20033;-83
2023/11/01 11:07:04;;;;;;;0.15;0.15;;;;;;;20.42;62.44;100121.91;5052142;28;20079;-83
2023/11/01 11:09:32;;;;;;;0.10;0.10;;;;;;;20.08;63.69;100035.50;5028205;28;20040;-82
2023/11/01 11:12:21;;;;;;;0.25;0.25;;;;;;;20.02;64.44;99995.84;5032164;28;20112;-82
2023/11/01 11:14:51;;;;;;;0.10;0.10;;;;;;;20.41;67.19;100117.50;5045602;28;20035;-83
2023/11/01 11:17:27;;;;;;;0.63;0.63;;;;;;;20.69;67.29;100148.25;5048781;28;20136;-82
2023/11/01 11:20:29;;;;;;;0.52;0.47;;;;;;;20.51;69.11;100141.94;5034165;28;20099;-83
2023/11/01 11:22:57;;;;;;;4.82;0.73;;;;;;;20.36;67.38;100143.50;5030242;28;20045;-83
2023/11/01 11:25:38;;;;;;;1.05;0.60;;;;;;;20.32;66.32;100140.13;5024671;28;20043;-83
2023/11/01 11:28:05;;;;;;;0.20;0.20;;;;;;;20.09;63.56;100138.47;5033549;28;20086;-83
2023/11/01 11:31:11;;;;;;;0.50;0.50;;;;;;;20.10;61.90;100126.88;5049288;28;20120;-84
2023/11/01 11:33:58;;;;;;;0.15;0.13;;;;;;;19.61;62.84;100027.78;5031575;28;20500;-82
2023/11/01 11:36:24;;;;;;;0.85;0.60;;;;;;;20.21;62.83;100126.41;5013387;28;20477;-83
2023/11/01 11:38:50;;;;;;;0.20;0.20;;;;;;;20.19;63.02;100136.25;5028833;28;20485;-83
2023/11/01 11:41:52;;;;;;;0.10;0.10;;;;;;;20.19;63.39;100129.13;5029305;28;20056;-84
2023/11/01 11:44:22;;;;;;;0.85;0.73;;;;;;;19.75;65.55;100072.47;5032626;28;20037;-83
2023/11/01 11:46:59;;;;;;;0.20;0.20;;;;;;;19.41;68.18;100026.00;5029275;28;20386;-82
2023/11/01 11:49:27;;;;;;;0.20;0.20;;;;;;;20.00;70.60;100126.41;5013853;28;20112;-83
2023/11/01 11:52:07;;;;;;;0.60;0.60;;;;;;;19.92;71.19;100085.06;5033780;28;20380;-83
2023/11/01 11:55:20;;;;;;;0.20;0.20;;;;;;;20.39;71.54;100130.91;5035784;28;20539;-83
2023/11/01 11:58:27;;;;;;;0.20;0.20;;;;;;;20.47;72.09;100135.88;5033009;28;20036;-83
2023/11/01 12:00:53;;;;;;;0.20;0.20;;;;;;;19.90;73.46;100061.19;5020534;28;20048;-82
2023/11/01 12:03:23;;;;;;;0.47;0.47;;;;;;;20.00;76.69;100110.44;5033899;28;20037;-82
2023/11/01 12:05:55;;;;;;;0.20;0.20;;;;;;;20.10;76.81;100118.88;5015731;28;20489;-83
2023/11/01 12:08:40;;;;;;;0.17;0.17;;;;;;;20.08;78.29;100120.72;5031040;28;20049;-83
2023/11/01 12:11:07;;;;;;;0.20;0.20;;;;;;;19.97;77.58;100105.25;5014230;28;20041;-83
2023/11/01 12:13:47;;;;;;;0.57;0.57;;;;;;;19.74;76.02;100111.56;5014076;28;20041;-83
2023/11/01 12:16:30;;;;;;;0.17;0.17;;;;;;;19.42;77.60;100049.00;5033395;28;20548;-84
2023/11/01 12:29:52;;;;;;;0.10;0.10;;;;;;;20.27;75.21;100139.44;5033548;28;20040;-81
2023/11/01 12:32:41;;;;;;;0.20;0.20;;;;;;;20.26;74.89;100145.72;5034209;28;20127;-81
2023/11/01 12:35:13;;;;;;;0.20;0.20;;;;;;;20.23;73.97;100148.53;5045970;28;20135;-81
2023/11/01 12:37:41;;;;;;;0.57;0.55;;;;;;;20.19;74.88;100138.91;5015320;28;20084;-81
2023/11/01 12:40:35;;;;;;;0.47;0.43;;;;;;;20.05;75.09;100150.19;5053899;28;20053;-79
2023/11/01 12:43:08;;;;;;;1.13;0.35;;;;;;;20.21;74.74;100137.91;5013882;28;20065;-81
2023/11/01 12:46:09;;;;;;;;;;;;;;;20.10;73.98;100152.66;5015229;28;20041;-78
2023/11/01 12:49:18;;;;;;;0.13;0.13;;;;;;;20.14;74.09;100170.22;5018732;28;19913;-79
2023/11/01 12:51:44;;;;;;;0.85;0.80;;;;;;;19.40;74.07;100072.16;5030499;28;20041;-81
2023/11/01 12:54:11;;;;;;;0.20;0.20;;;;;;;19.79;75.17;100135.31;5038259;28;20037;-79
2023/11/01 12:56:36;;;;;;;0.20;0.20;;;;;;;19.93;74.51;100150.72;5041457;28;20071;-78
2023/11/01 12:59:02;;;;;;;0.17;0.17;;;;;;;19.57;74.44;100079.41;5036826;28;20049;-79
2023/11/01 13:01:43;;;;;;;0.10;0.10;;;;;;;19.55;73.13;100073.28;5032050;28;20049;-77
2023/11/01 13:04:09;;;;;;;0.13;0.13;;;;;;;20.02;73.21;100172.50;5032441;28;20041;-79
2023/11/01 13:06:35;;;;;;;0.40;0.38;;;;;;;19.78;71.86;100123.81;5037238;28;20478;-78
2023/11/01 13:12:11;;;;;;;0.20;0.20;;;;;;;19.73;71.60;100124.94;5032023;28;20060;-79
2023/11/01 13:14:38;;;;;;;0.10;0.10;;;;;;;19.83;71.79;100163.56;5040797;28;20032;-78
2023/11/01 13:17:04;;;;;;;1.38;1.27;;;;;;;19.77;70.78;100151.34;5042352;28;20052;-79
2023/11/01 13:19:29;;;;;;;0.75;0.43;;;;;;;19.90;69.50;100154.38;5041885;28;20442;-78
2023/11/01 13:21:55;;;;;;;0.55;0.35;;;;;;;19.76;68.51;100136.31;5053167;28;20037;-78
2023/11/01 13:24:21;;;;;;;0.20;0.20;;;;;;;19.28;68.90;100049.59;5049182;28;20436;-79
2023/11/01 13:26:48;;;;;;;0.45;0.43;;;;;;;19.97;68.25;100146.97;5014797;28;20025;-88
2023/11/01 13:29:13;;;;;;;0.10;0.10;;;;;;;19.59;66.40;100089.06;5040014;28;20064;-74
2023/11/01 13:31:39;;;;;;;1.48;1.38;;;;;;;19.37;65.10;100110.41;5032898;28;20069;-73
2023/11/01 13:34:05;;;;;;;4.13;0.90;;;;;;;19.46;64.26;100077.22;5037072;28;20064;-73
2023/11/01 13:36:45;;;;;;;0.20;0.20;;;;;;;20.00;63.62;100173.50;5041857;28;20041;-74
2023/11/01 13:39:47;;;;;;;0.20;0.20;;;;;;;20.03;62.93;100184.88;5045100;28;20025;-74
2023/11/01 13:42:14;;;;;;;0.35;0.30;;;;;;;19.96;62.08;100158.56;5049656;28;20145;-74
2023/11/01 13:44:39;;;;;;;0.28;0.28;;;;;;;19.98;61.30;100184.19;5049002;28;20115;-73
2023/11/01 13:47:05;;;;;;;0.55;0.55;;;;;;;19.98;60.42;100186.00;5045925;28;20152;-73
2023/11/01 13:52:53;;;;;;;0.30;0.20;;;;;;;19.83;59.96;100182.19;5049422;28;20063;-74
2023/11/01 13:55:48;;;;;;;0.25;0.17;;;;;;;19.87;59.73;100188.25;5049240;28;20473;-74
2023/11/01 14:04:57;;;;;;;0.10;0.10;;;;;;;19.00;59.74;100097.72;5050174;28;20469;-74
2023/11/01 14:07:22;;;;;;;0.45;0.45;;;;;;;19.72;58.96;100190.63;5044864;28;20065;-73
2023/11/01 14:09:51;;;;;;;0.77;0.55;;;;;;;19.66;59.36;100188.16;5046021;28;20041;-74
2023/11/01 14:12:17;;;;;;;1.13;0.85;;;;;;;19.06;58.45;100096.59;5024075;28;20465;-75
2023/11/01 14:14:59;;;;;;;0.40;0.40;;;;;;;19.49;59.02;100185.34;5045298;28;20115;-73
2023/11/01 14:17:25;;;;;;;0.20;0.20;;;;;;;18.94;58.81;100085.56;5047594;28;20040;-74
2023/11/01 14:19:50;;;;;;;0.10;0.10;;;;;;;19.03;58.95;100096.72;5046765;28;20398;-74
2023/11/01 14:22:16;;;;;;;0.10;0.10;;;;;;;19.04;58.39;100098.47;5044111;28;20099;-74
2023/11/01 14:24:45;;;;;;;0.52;0.52;;;;;;;19.42;57.78;100183.88;5048685;28;20183;-72
2023/11/01 14:27:11;;;;;;;0.50;0.50;;;;;;;19.38;57.43;100188.44;5044024;28;20027;-73
2023/11/01 14:33:13;;;;;;;0.20;0.20;;;;;;;18.44;58.05;100058.25;5043631;28;20166;-74
2023/11/01 14:35:39;;;;;;;0.95;0.30;;;;;;;19.18;58.97;100194.56;5021505;28;20160;-72
2023/11/01 14:38:05;;;;;;;0.20;0.20;;;;;;;19.23;58.53;100205.00;5025837;28;20442;-72
2023/11/01 14:40:32;;;;;;;0.30;0.30;;;;;;;19.17;58.89;100199.00;5031622;28;20120;-73
2023/11/01 14:43:00;;;;;;;0.10;0.10;;;;;;;18.01;58.83;100035.97;5027045;28;20533;-73
2023/11/01 14:45:26;;;;;;;0.60;0.52;;;;;;;19.01;59.04;100197.88;5022204;28;20037;-72
2023/11/01 14:47:54;;;;;;;1.00;0.65;;;;;;;19.05;57.99;100196.81;5027765;28;20026;-74